createdAt,value
2022-11-26T00:04:20.832Z,73.25
2022-11-26T00:09:25.289Z,73.00
2022-11-26T00:14:28.446Z,73.04
2022-11-26T00:19:32.458Z,72.90
2022-11-26T00:24:36.507Z,73.18
2022-11-26T00:29:42.012Z,73.04
2022-11-26T00:34:45.909Z,72.88
2022-11-26T00:39:50.101Z,72.87
2022-11-26T00:44:53.611Z,72.88
2022-11-26T00:49:57.391Z,72.87
2022-11-26T00:55:16.261Z,72.70
2022-11-26T01:00:24.134Z,72.77
2022-11-26T01:05:33.852Z,72.81
2022-11-26T01:10:37.546Z,72.55
2022-11-26T01:15:41.677Z,72.55
2022-11-26T01:20:45.423Z,72.43
2022-11-26T01:25:49.877Z,72.25
2022-11-26T01:30:53.389Z,71.90
2022-11-26T01:35:57.042Z,71.85
2022-11-26T01:41:16.756Z,71.78
2022-11-26T01:46:22.842Z,71.72
2022-11-26T01:51:28.525Z,71.87
2022-11-26T01:56:41.367Z,71.80
2022-11-26T02:01:45.372Z,71.84
2022-11-26T02:06:53.392Z,71.66
2022-11-26T02:11:57.681Z,71.53
2022-11-26T02:17:10.770Z,71.59
2022-11-26T02:22:36.338Z,71.71
2022-11-26T02:27:52.642Z,71.83
2022-11-26T02:33:12.154Z,71.95
2022-11-26T02:38:33.567Z,71.73
2022-11-26T02:43:38.673Z,71.93
2022-11-26T02:48:47.440Z,71.59
2022-11-26T02:53:52.857Z,71.35
2022-11-26T02:58:57.436Z,71.22
2022-11-26T03:04:07.837Z,71.16
2022-11-26T03:09:11.312Z,70.93
2022-11-26T03:14:15.326Z,70.88
2022-11-26T03:19:18.829Z,71.00
2022-11-26T03:24:22.385Z,71.24
2022-11-26T03:29:26.059Z,71.18
2022-11-26T03:34:29.805Z,71.23
2022-11-26T03:39:33.112Z,70.99
2022-11-26T03:44:37.268Z,70.87
2022-11-26T03:49:41.168Z,70.85
2022-11-26T03:54:44.786Z,70.97
2022-11-26T04:05:08.282Z,71.09
2022-11-26T04:10:17.056Z,71.13
2022-11-26T04:15:23.322Z,71.18
2022-11-26T04:20:26.761Z,71.15
2022-11-26T04:25:30.065Z,71.01
2022-11-26T04:30:34.643Z,70.78
2022-11-26T04:35:38.290Z,70.56
2022-11-26T04:40:46.235Z,70.53
2022-11-26T04:45:49.846Z,70.49
2022-11-26T04:50:53.685Z,70.50
2022-11-26T04:55:57.918Z,70.44
2022-11-26T05:01:03.747Z,70.49
2022-11-26T05:06:11.932Z,70.33
2022-11-26T05:11:15.514Z,70.03
2022-11-26T05:16:19.091Z,69.91
2022-11-26T05:21:22.831Z,70.16
2022-11-26T05:26:26.646Z,69.64
2022-11-26T05:31:31.305Z,69.81
2022-11-26T05:36:35.001Z,70.26
2022-11-26T05:41:38.608Z,70.15
2022-11-26T05:46:43.737Z,70.37
2022-11-26T05:51:47.118Z,70.32
2022-11-26T05:56:54.274Z,70.27
2022-11-26T06:02:02.218Z,70.31
2022-11-26T06:07:05.617Z,69.83
2022-11-26T06:12:09.135Z,69.54
2022-11-26T06:17:12.855Z,69.74
2022-11-26T06:22:16.533Z,69.91
2022-11-26T06:27:43.336Z,70.06
2022-11-26T06:32:49.945Z,70.18
2022-11-26T06:37:53.413Z,70.26
2022-11-26T06:42:57.518Z,70.33
2022-11-26T06:48:01.369Z,70.36
2022-11-26T06:53:08.273Z,70.31
2022-11-26T06:58:11.775Z,70.29
2022-11-26T07:03:18.609Z,70.62
2022-11-26T07:08:25.709Z,70.50
2022-11-26T07:13:29.231Z,70.33
2022-11-26T07:18:32.831Z,70.12
2022-11-26T07:23:36.994Z,70.26
2022-11-26T07:28:45.452Z,70.20
2022-11-26T07:33:59.042Z,70.27
2022-11-26T07:39:03.626Z,70.45
2022-11-26T07:44:07.118Z,70.29
2022-11-26T07:49:10.709Z,70.24
2022-11-26T07:54:17.094Z,70.12
2022-11-26T07:59:24.462Z,69.75
2022-11-26T08:04:37.563Z,69.82
2022-11-26T08:09:41.154Z,70.04
2022-11-26T08:14:44.966Z,70.12
2022-11-26T08:19:50.834Z,70.32
2022-11-26T08:24:54.436Z,70.08
2022-11-26T08:30:07.982Z,70.68
2022-11-26T08:35:13.439Z,69.95
2022-11-26T08:40:17.431Z,69.78
2022-11-26T08:45:24.845Z,69.65
2022-11-26T08:50:28.407Z,69.38
2022-11-26T08:55:58.769Z,69.51
2022-11-26T09:00:56.036Z,69.52
2022-11-26T09:06:03.629Z,69.88
2022-11-26T09:11:06.855Z,69.66
2022-11-26T09:16:09.994Z,69.58
2022-11-26T09:21:13.733Z,69.56
2022-11-26T09:26:18.434Z,68.74
2022-11-26T09:31:22.136Z,69.24
2022-11-26T09:36:29.032Z,69.50
2022-11-26T09:41:44.729Z,69.44
2022-11-26T09:47:15.602Z,69.40
2022-11-26T09:52:22.737Z,69.45
2022-11-26T09:57:49.240Z,69.63
2022-11-26T10:02:54.063Z,69.45
2022-11-26T10:08:23.264Z,69.22
2022-11-26T10:13:38.223Z,69.15
2022-11-26T10:18:54.872Z,68.88
2022-11-26T10:24:04.855Z,69.03
2022-11-26T10:29:33.530Z,69.12
2022-11-26T10:34:48.422Z,69.02
2022-11-26T10:40:24.171Z,68.88
2022-11-26T10:45:41.200Z,68.68
2022-11-26T10:50:56.079Z,68.61
2022-11-26T10:56:01.572Z,68.46
2022-11-26T11:01:06.416Z,68.31
2022-11-26T11:06:12.500Z,68.35
2022-11-26T11:11:22.418Z,68.83
2022-11-26T11:16:27.947Z,68.70
2022-11-26T11:21:34.958Z,69.02
2022-11-26T11:26:44.805Z,68.98
2022-11-26T11:31:48.370Z,69.07
2022-11-26T11:37:07.879Z,68.93
2022-11-26T11:42:29.479Z,68.78
2022-11-26T11:47:45.072Z,68.81
2022-11-26T11:52:48.020Z,69.04
2022-11-26T11:58:09.517Z,69.37
2022-11-26T12:03:14.949Z,69.60
2022-11-26T12:08:33.157Z,69.66
2022-11-26T12:13:49.065Z,69.80
2022-11-26T12:18:56.401Z,69.77
2022-11-26T12:24:05.084Z,69.84
2022-11-26T12:29:26.935Z,69.72
2022-11-26T12:34:32.885Z,70.27
2022-11-26T12:39:35.888Z,70.20
2022-11-26T12:44:44.907Z,70.38
2022-11-26T12:50:15.847Z,70.55
2022-11-26T12:55:52.807Z,70.28
2022-11-26T13:00:57.062Z,70.43
2022-11-26T13:06:35.265Z,70.31
2022-11-26T13:11:56.022Z,70.46
2022-11-26T13:17:08.258Z,70.49
2022-11-26T13:22:23.039Z,70.56
2022-11-26T13:27:57.986Z,70.73
2022-11-26T13:33:47.221Z,70.76
2022-11-26T13:39:15.496Z,70.55
2022-11-26T13:44:43.528Z,70.52
2022-11-26T13:49:55.511Z,70.41
2022-11-26T13:55:19.648Z,70.54
2022-11-26T14:00:31.708Z,70.50
2022-11-26T14:05:49.787Z,70.81
2022-11-26T14:10:52.864Z,70.85
2022-11-26T14:15:57.586Z,70.97
2022-11-26T14:21:00.797Z,71.14
2022-11-26T14:26:04.179Z,71.06
2022-11-26T14:31:28.232Z,71.38
2022-11-26T14:36:31.749Z,71.27
2022-11-26T14:41:59.103Z,71.40
2022-11-26T14:47:27.621Z,71.54
2022-11-26T14:52:39.250Z,71.54
2022-11-26T14:57:46.645Z,71.66
2022-11-26T15:02:50.338Z,71.56
2022-11-26T15:07:58.139Z,71.79
2022-11-26T15:13:10.234Z,71.78
2022-11-26T15:18:16.078Z,71.60
2022-11-26T15:23:22.088Z,71.60
2022-11-26T15:28:26.485Z,71.59
2022-11-26T15:33:32.048Z,71.71
2022-11-26T15:38:37.562Z,71.86
2022-11-26T15:43:44.876Z,71.60
2022-11-26T15:48:55.911Z,71.35
2022-11-26T15:53:59.319Z,71.18
2022-11-26T15:59:07.443Z,71.15
2022-11-26T16:04:33.048Z,71.55
2022-11-26T16:09:36.066Z,71.52
2022-11-26T16:14:40.054Z,71.49
2022-11-26T16:19:53.256Z,71.45
2022-11-26T16:25:05.864Z,71.54
2022-11-26T16:30:15.893Z,71.36
2022-11-26T16:35:44.321Z,71.42
2022-11-26T16:40:42.548Z,71.57
2022-11-26T16:45:46.907Z,71.84
2022-11-26T16:50:50.404Z,71.99
2022-11-26T16:55:54.061Z,71.94
2022-11-26T17:00:57.819Z,71.96
2022-11-26T17:06:06.939Z,71.96
2022-11-26T17:11:13.975Z,71.95
2022-11-26T17:16:19.888Z,71.87
2022-11-26T17:21:23.941Z,71.59
2022-11-26T17:26:27.237Z,71.59
2022-11-26T17:31:30.945Z,71.88
2022-11-26T17:36:37.022Z,71.74
2022-11-26T17:41:40.718Z,71.46
2022-11-26T17:47:09.079Z,71.46
2022-11-26T17:52:07.771Z,71.41
2022-11-26T17:57:16.071Z,71.10
2022-11-26T18:02:19.493Z,71.20
2022-11-26T18:07:23.210Z,71.10
2022-11-26T18:12:28.104Z,71.22
2022-11-26T18:17:31.607Z,71.52
2022-11-26T18:22:35.097Z,71.13
2022-11-26T18:27:38.257Z,70.73
2022-11-26T18:32:41.641Z,69.92
2022-11-26T18:37:44.844Z,69.52
2022-11-26T18:42:53.006Z,69.09
2022-11-26T18:47:56.462Z,68.59
2022-11-26T18:52:59.796Z,68.71
2022-11-26T18:58:07.821Z,68.77
2022-11-26T19:03:13.351Z,68.60
2022-11-26T19:08:16.699Z,68.56
2022-11-26T19:13:20.077Z,68.25
2022-11-26T19:18:26.289Z,68.33
2022-11-26T19:23:29.876Z,68.01
2022-11-26T19:28:33.891Z,67.95
2022-11-26T19:33:38.003Z,67.89
2022-11-26T19:38:41.348Z,67.61
2022-11-26T19:43:44.685Z,67.13
2022-11-26T19:48:49.781Z,66.95
2022-11-26T19:53:55.064Z,67.23
2022-11-26T19:59:00.792Z,67.22
2022-11-26T20:04:08.670Z,67.00
2022-11-26T20:09:15.805Z,67.15
2022-11-26T20:14:22.719Z,67.01
2022-11-26T20:19:30.621Z,67.02
2022-11-26T20:24:36.421Z,66.66
2022-11-26T20:29:39.642Z,66.46
2022-11-26T20:34:45.115Z,66.22
2022-11-26T20:40:01.659Z,66.08
2022-11-26T20:45:45.898Z,66.20
2022-11-26T21:03:04.780Z,66.32
2022-11-26T21:08:11.333Z,66.09
2022-11-26T21:13:16.921Z,66.11
2022-11-26T21:18:20.713Z,66.18
2022-11-26T21:23:24.219Z,66.18
2022-11-26T21:28:27.587Z,66.06
2022-11-26T21:33:30.960Z,65.90
2022-11-26T21:38:34.560Z,65.63
2022-11-26T21:43:38.793Z,65.07
2022-11-26T21:48:42.233Z,64.56
2022-11-26T21:53:46.807Z,67.73
2022-11-26T21:58:54.143Z,66.80
2022-11-26T22:04:04.564Z,64.62
2022-11-26T22:09:08.259Z,64.56
2022-11-26T22:14:15.045Z,64.59
2022-11-26T22:19:18.295Z,64.23
2022-11-26T22:24:21.572Z,63.92
2022-11-26T22:29:25.081Z,63.67
2022-11-26T22:34:29.400Z,63.98
2022-11-26T22:39:32.836Z,64.49
2022-11-26T22:44:36.660Z,64.50
2022-11-26T22:49:40.734Z,64.03
2022-11-26T22:54:44.495Z,64.22
2022-11-26T22:59:48.011Z,63.86
2022-11-26T23:04:52.898Z,63.77
2022-11-26T23:09:58.942Z,63.77
2022-11-26T23:15:03.293Z,63.58
2022-11-26T23:20:08.015Z,63.27
2022-11-26T23:25:12.031Z,63.45
2022-11-26T23:30:16.173Z,62.98
2022-11-26T23:35:20.344Z,62.88
2022-11-26T23:40:24.013Z,62.58
2022-11-26T23:45:28.904Z,61.86
2022-11-26T23:50:35.108Z,61.90
2022-11-26T23:55:38.362Z,61.35
